Impacts TAF Board
For situational awareness. Not to be used for flight planning purposes.
IDs:

KTPA - Tampa Intl Arpt, FL, US

Issued at 1736 UTC 25 Mar 2019
Updated at 1808 UTC 25 Mar 2019
Potential Impact None Slight Moderate High
Time<<26/07Z 26/08Z 26/09Z 26/10Z 26/11Z 26/12Z 26/13Z 26/14Z 26/15Z 26/16Z 26/17Z 26/18Z 26/19Z>>
Type PRVL PRVL PRVL PRVL PRVL PRVL PRVL PRVL PRVL PRVL PRVL PRVL PRVL
VIS >6 >6 >6 >6 >6 >6 >6 >6 >6 >6 >6 >6 >6
CIG -- -- -- -- -- -- -- -- -- -- -- -- --
Cover SCT SCT SCT SCT SCT SCT SCT SCT SCT SCT SCT SCT SCT
FltCat VFR VFR VFR VFR VFR VFR VFR VFR VFR VFR VFR VFR VFR
WX -- -- -- -- -- -- -- -- -- -- -- -- --
WDir 260 260 260 260 260 260 260 290 290 290 290 290 290
WSpd 4 4 4 4 4 4 4 8 8 8 11 11 11
WGst -- -- -- -- -- -- -- -- -- -- -- -- --
Raw TAF
KTPA 251736Z 2518/2624 24007KT P6SM SCT050
  FM252100 26008KT P6SM FEW050
  FM260100 26004KT P6SM FEW035 SCT250
  FM260600 26004KT P6SM SCT025 SCT250
  FM261400 29008KT P6SM SCT025 SCT250
  FM261700 29011KT P6SM SCT250


METAR Board
Radar Display
Forecast Discussion
For situational awareness. Not to be used for flight planning purposes.